createdAt,value
2022-08-05T00:01:36.242Z,19.70
2022-08-05T00:04:18.189Z,19.60
2022-08-05T00:06:47.027Z,19.60
2022-08-05T00:09:15.997Z,19.70
2022-08-05T00:11:59.660Z,19.70
2022-08-05T00:14:29.142Z,19.60
2022-08-05T00:16:58.752Z,19.60
2022-08-05T00:19:40.609Z,19.60
2022-08-05T00:22:13.923Z,19.50
2022-08-05T00:24:46.699Z,19.50
2022-08-05T00:27:35.954Z,19.40
2022-08-05T00:30:11.184Z,19.30
2022-08-05T00:35:05.809Z,19.20
2022-08-05T00:37:53.363Z,19.10
2022-08-05T00:40:27.966Z,19.10
2022-08-05T00:43:02.499Z,19.10
2022-08-05T00:45:43.075Z,19.00
2022-08-05T00:48:14.925Z,19.00
2022-08-05T00:50:46.083Z,19.00
2022-08-05T00:54:01.264Z,19.00
2022-08-05T00:56:05.698Z,19.00
2022-08-05T00:58:37.083Z,19.00
2022-08-05T01:01:08.749Z,19.00
2022-08-05T01:03:38.638Z,19.00
2022-08-05T01:06:11.418Z,19.00
2022-08-05T01:08:44.305Z,19.00
2022-08-05T01:11:21.893Z,19.00
2022-08-05T01:14:15.298Z,19.00
2022-08-05T01:16:57.890Z,19.00
2022-08-05T01:20:01.569Z,18.90
2022-08-05T01:22:42.856Z,19.00
2022-08-05T01:25:40.519Z,18.90
2022-08-05T01:28:19.027Z,18.90
2022-08-05T01:30:56.969Z,18.90
2022-08-05T01:33:35.880Z,18.90
2022-08-05T01:36:16.272Z,18.80
2022-08-05T01:38:49.729Z,18.80
2022-08-05T01:41:22.029Z,18.70
2022-08-05T01:43:54.684Z,18.70
2022-08-05T01:46:41.420Z,18.70
2022-08-05T01:49:24.882Z,18.60
2022-08-05T01:51:59.365Z,18.70
2022-08-05T01:54:46.236Z,18.60
2022-08-05T01:58:14.853Z,18.50
2022-08-05T02:00:30.297Z,18.50
2022-08-05T02:03:24.256Z,18.50
2022-08-05T02:05:58.016Z,18.50
2022-08-05T02:08:30.821Z,18.50
2022-08-05T02:11:06.746Z,18.50
2022-08-05T02:13:56.134Z,18.50
2022-08-05T02:16:27.930Z,18.40
2022-08-05T02:19:01.174Z,18.40
2022-08-05T02:21:43.310Z,18.30
2022-08-05T02:24:23.220Z,18.30
2022-08-05T02:26:56.813Z,18.20
2022-08-05T02:29:58.995Z,18.20
2022-08-05T02:32:24.271Z,18.20
2022-08-05T02:35:13.366Z,18.20
2022-08-05T02:37:47.925Z,18.20
2022-08-05T02:40:24.111Z,18.20
2022-08-05T02:42:54.336Z,18.10
2022-08-05T02:45:25.307Z,18.10
2022-08-05T02:48:07.113Z,18.10
2022-08-05T02:50:46.012Z,18.10
2022-08-05T02:53:18.963Z,18.00
2022-08-05T02:55:59.500Z,18.00
2022-08-05T02:58:30.273Z,18.00
2022-08-05T03:01:02.571Z,18.10
2022-08-05T03:03:34.266Z,18.10
2022-08-05T03:06:54.599Z,18.10
2022-08-05T03:09:15.719Z,18.10
2022-08-05T03:11:54.522Z,18.10
2022-08-05T03:14:26.850Z,18.10
2022-08-05T03:16:55.154Z,18.00
2022-08-05T03:19:34.245Z,18.10
2022-08-05T03:22:04.726Z,18.00
2022-08-05T03:24:33.734Z,18.00
2022-08-05T03:27:02.887Z,18.00
2022-08-05T03:29:44.514Z,17.90
2022-08-05T03:32:17.797Z,17.90
2022-08-05T03:34:51.272Z,17.90
2022-08-05T03:37:21.301Z,17.80
2022-08-05T03:40:01.226Z,17.80
2022-08-05T03:42:31.996Z,17.80
2022-08-05T03:45:21.134Z,17.80
2022-08-05T03:47:50.194Z,17.70
2022-08-05T03:50:19.262Z,17.70
2022-08-05T03:55:06.889Z,17.70
2022-08-05T03:56:09.958Z,17.70
2022-08-05T03:58:46.334Z,17.60
2022-08-05T04:01:20.905Z,17.60
2022-08-05T04:04:10.155Z,17.60
2022-08-05T04:06:48.012Z,17.60
2022-08-05T04:09:26.579Z,17.50
2022-08-05T04:11:56.566Z,17.50
2022-08-05T04:14:29.924Z,17.50
2022-08-05T04:17:00.767Z,17.40
2022-08-05T04:19:30.312Z,17.30
2022-08-05T04:22:09.507Z,17.30
2022-08-05T04:24:44.345Z,17.30
2022-08-05T04:27:15.787Z,17.30
2022-08-05T04:29:44.536Z,17.30
2022-08-05T04:32:13.032Z,17.30
2022-08-05T04:34:43.804Z,17.30
2022-08-05T04:37:12.883Z,17.20
2022-08-05T04:39:41.769Z,17.20
2022-08-05T04:42:09.746Z,17.10
2022-08-05T04:44:38.328Z,17.10
2022-08-05T04:47:09.859Z,17.10
2022-08-05T04:50:01.538Z,17.10
2022-08-05T04:52:28.757Z,17.00
2022-08-05T04:54:57.880Z,17.00
2022-08-05T04:57:29.010Z,17.00
2022-08-05T04:59:58.520Z,17.00
2022-08-05T05:02:37.197Z,17.00
2022-08-05T05:05:26.234Z,16.90
2022-08-05T05:08:14.420Z,16.90
2022-08-05T05:10:56.676Z,16.90
2022-08-05T05:13:32.373Z,16.90
2022-08-05T05:16:11.488Z,16.90
2022-08-05T05:18:48.525Z,16.90
2022-08-05T05:21:28.006Z,16.90
2022-08-05T05:24:08.832Z,17.00
2022-08-05T05:26:37.852Z,17.00
2022-08-05T05:29:14.364Z,17.00
2022-08-05T05:31:46.342Z,17.00
2022-08-05T05:34:15.553Z,17.10
2022-08-05T05:36:43.966Z,17.00
2022-08-05T05:39:15.274Z,17.00
2022-08-05T05:41:54.500Z,17.00
2022-08-05T05:44:36.647Z,17.00
2022-08-05T05:47:21.714Z,17.00
2022-08-05T05:49:52.525Z,16.90
2022-08-05T05:52:33.072Z,17.00
2022-08-05T05:55:13.300Z,16.90
2022-08-05T05:57:52.654Z,16.90
2022-08-05T06:00:29.567Z,16.90
2022-08-05T06:03:03.355Z,16.90
2022-08-05T06:05:54.285Z,16.90
2022-08-05T06:08:31.568Z,17.00
2022-08-05T06:11:01.257Z,17.00
2022-08-05T06:13:29.450Z,17.00
2022-08-05T06:16:29.202Z,17.10
2022-08-05T06:18:56.640Z,17.10
2022-08-05T06:21:51.047Z,17.10
2022-08-05T06:24:27.237Z,17.10
2022-08-05T06:26:55.670Z,17.10
2022-08-05T06:29:46.920Z,17.20
2022-08-05T06:32:26.110Z,17.20
2022-08-05T06:34:58.740Z,17.20
2022-08-05T06:37:55.931Z,17.20
2022-08-05T06:40:21.200Z,17.30
2022-08-05T06:42:51.764Z,17.30
2022-08-05T06:45:44.925Z,17.30
2022-08-05T06:48:36.459Z,17.30
2022-08-05T06:51:00.207Z,17.40
2022-08-05T06:53:29.382Z,17.40
2022-08-05T06:56:00.001Z,17.40
2022-08-05T06:58:36.602Z,17.50
2022-08-05T07:01:06.984Z,17.60
2022-08-05T07:03:35.308Z,17.60
2022-08-05T07:06:06.223Z,17.70
2022-08-05T07:08:47.543Z,17.80
2022-08-05T07:11:22.620Z,18.20
2022-08-05T07:14:15.487Z,18.70
2022-08-05T07:17:56.816Z,19.20
2022-08-05T07:22:30.217Z,20.60
2022-08-05T07:25:22.995Z,21.20
2022-08-05T07:27:58.527Z,21.80
2022-08-05T07:30:39.224Z,22.30
2022-08-05T07:33:15.968Z,22.60
2022-08-05T07:36:04.202Z,22.90
2022-08-05T07:38:43.654Z,23.30
2022-08-05T07:42:14.288Z,23.70
2022-08-05T07:44:18.734Z,24.00
2022-08-05T07:46:49.695Z,24.40
2022-08-05T07:49:19.475Z,24.80
2022-08-05T07:51:53.817Z,25.10
2022-08-05T07:54:30.720Z,25.30
2022-08-05T07:57:17.662Z,25.30
2022-08-05T07:59:50.782Z,25.20
2022-08-05T08:02:31.279Z,25.40
2022-08-05T08:05:16.448Z,25.60
2022-08-05T08:07:59.631Z,25.80
2022-08-05T08:10:30.489Z,26.00
2022-08-05T08:12:59.434Z,26.20
2022-08-05T08:16:33.988Z,26.30
2022-08-05T08:18:20.997Z,26.30
2022-08-05T08:21:02.504Z,26.40
2022-08-05T08:24:01.160Z,26.50
2022-08-05T08:26:29.728Z,26.60
2022-08-05T08:29:21.564Z,26.70
2022-08-05T08:31:48.368Z,26.70
2022-08-05T08:34:30.323Z,26.60
2022-08-05T08:37:05.217Z,26.60
2022-08-05T08:39:37.658Z,26.80
2022-08-05T08:42:32.513Z,26.90
2022-08-05T08:45:21.320Z,27.10
2022-08-05T08:48:10.736Z,27.20
2022-08-05T08:51:22.010Z,27.40
2022-08-05T08:53:37.236Z,27.50
2022-08-05T08:56:08.182Z,27.80
2022-08-05T08:58:44.452Z,27.90
2022-08-05T09:01:18.391Z,27.90
2022-08-05T09:03:55.263Z,28.00
2022-08-05T09:06:29.376Z,28.00
2022-08-05T09:09:01.130Z,27.90
2022-08-05T09:11:52.824Z,27.90
2022-08-05T09:14:58.881Z,28.00
2022-08-05T09:17:41.075Z,27.80
2022-08-05T09:20:04.877Z,27.70
2022-08-05T09:23:09.002Z,27.40
2022-08-05T09:26:02.659Z,27.40
2022-08-05T09:28:34.385Z,27.40
2022-08-05T09:31:23.462Z,27.40
2022-08-05T09:34:04.268Z,27.50
2022-08-05T09:36:54.311Z,27.60
2022-08-05T09:39:39.157Z,27.60
2022-08-05T09:42:23.659Z,27.60
2022-08-05T09:45:03.287Z,27.60
2022-08-05T09:47:55.159Z,27.60
2022-08-05T09:50:44.402Z,27.60
2022-08-05T09:53:23.015Z,27.50
2022-08-05T09:56:11.363Z,27.40
2022-08-05T09:58:42.380Z,27.40
2022-08-05T10:01:15.709Z,27.30
2022-08-05T10:04:10.420Z,27.10
2022-08-05T10:06:59.252Z,26.90
2022-08-05T10:09:29.532Z,26.80
2022-08-05T10:12:30.288Z,26.60
2022-08-05T10:15:25.593Z,26.40
2022-08-05T10:18:09.345Z,26.40
2022-08-05T10:20:59.445Z,26.40
2022-08-05T10:23:55.782Z,26.40
2022-08-05T10:26:31.694Z,26.10
2022-08-05T10:29:05.929Z,25.90
2022-08-05T10:32:55.378Z,25.70
2022-08-05T10:34:30.019Z,25.50
2022-08-05T10:36:59.709Z,25.40
2022-08-05T10:40:03.559Z,25.50
2022-08-05T10:42:33.379Z,25.70
2022-08-05T10:45:20.980Z,25.80
2022-08-05T10:48:29.904Z,26.00
2022-08-05T10:51:22.062Z,26.10
2022-08-05T10:53:51.406Z,26.20
2022-08-05T10:56:27.867Z,26.30
2022-08-05T10:59:07.291Z,26.40
2022-08-05T11:01:55.336Z,26.40
2022-08-05T11:04:43.775Z,26.40
2022-08-05T11:07:16.549Z,26.50
2022-08-05T11:09:47.223Z,26.40
2022-08-05T11:12:35.193Z,26.40
2022-08-05T11:16:00.728Z,26.30
2022-08-05T11:18:35.123Z,26.40
2022-08-05T11:21:11.769Z,26.50
2022-08-05T11:24:05.500Z,26.60
2022-08-05T11:26:43.482Z,26.60
2022-08-05T11:29:35.940Z,26.60
2022-08-05T11:32:27.501Z,26.50
2022-08-05T11:34:57.391Z,26.20
2022-08-05T11:38:28.837Z,25.80
2022-08-05T11:40:48.470Z,25.20
2022-08-05T11:44:05.902Z,24.80
2022-08-05T11:46:27.487Z,24.80
2022-08-05T11:49:01.232Z,25.00
2022-08-05T11:51:43.987Z,25.30
2022-08-05T11:54:41.586Z,25.50
2022-08-05T11:57:25.971Z,25.60
2022-08-05T11:59:55.850Z,25.80
2022-08-05T12:02:33.422Z,25.90
2022-08-05T12:05:06.838Z,25.90
2022-08-05T12:08:08.585Z,25.90
2022-08-05T12:10:43.053Z,25.90
2022-08-05T12:13:27.636Z,26.00
2022-08-05T12:16:15.439Z,26.10
2022-08-05T12:18:48.946Z,26.20
2022-08-05T12:23:13.846Z,26.20
2022-08-05T12:25:56.916Z,26.20
2022-08-05T12:28:36.987Z,26.30
2022-08-05T12:31:06.165Z,26.30
2022-08-05T12:33:36.565Z,26.30
2022-08-05T12:36:08.122Z,26.30
2022-08-05T12:38:39.738Z,26.40
2022-08-05T12:41:16.188Z,26.50
2022-08-05T12:43:53.187Z,26.70
2022-08-05T12:46:28.921Z,26.80
2022-08-05T12:49:13.720Z,26.70
2022-08-05T12:52:10.538Z,26.60
2022-08-05T12:54:43.406Z,26.70
2022-08-05T12:57:13.293Z,26.90
2022-08-05T13:01:56.932Z,27.00
2022-08-05T13:02:46.017Z,27.20
2022-08-05T13:05:19.209Z,27.30
2022-08-05T13:07:59.734Z,27.40
2022-08-05T13:10:32.051Z,27.40
2022-08-05T13:13:01.007Z,27.20
2022-08-05T13:15:35.838Z,27.10
2022-08-05T13:18:21.583Z,27.10
2022-08-05T13:20:52.482Z,27.10
2022-08-05T13:23:22.900Z,27.30
2022-08-05T13:25:59.363Z,27.40
2022-08-05T13:28:32.186Z,27.60
2022-08-05T13:31:03.287Z,27.70
2022-08-05T13:34:24.394Z,27.70
2022-08-05T13:36:30.721Z,27.80
2022-08-05T13:38:59.689Z,27.80
2022-08-05T13:41:36.084Z,27.30
2022-08-05T13:44:06.081Z,27.30
2022-08-05T13:46:50.960Z,27.20
2022-08-05T13:49:22.155Z,27.20
2022-08-05T13:51:51.514Z,27.40
2022-08-05T13:54:24.900Z,27.50
2022-08-05T13:56:55.063Z,27.70
2022-08-05T13:59:26.874Z,27.90
2022-08-05T14:02:00.503Z,28.00
2022-08-05T14:04:51.181Z,28.10
2022-08-05T14:07:59.721Z,28.20
2022-08-05T14:10:19.097Z,28.40
2022-08-05T14:12:57.109Z,28.40
2022-08-05T14:16:08.019Z,28.40
2022-08-05T14:18:17.745Z,28.50
2022-08-05T14:20:52.900Z,28.60
2022-08-05T14:23:25.624Z,28.60
2022-08-05T14:25:58.991Z,28.70
2022-08-05T14:28:30.999Z,28.60
2022-08-05T14:31:00.880Z,28.50
2022-08-05T14:33:56.232Z,28.40
2022-08-05T14:36:21.964Z,28.20
2022-08-05T14:38:51.105Z,28.00
2022-08-05T14:41:19.627Z,27.90
2022-08-05T14:44:01.645Z,27.90
2022-08-05T14:46:36.518Z,28.00
2022-08-05T14:49:06.979Z,28.10
2022-08-05T14:51:42.640Z,28.00
2022-08-05T14:54:29.652Z,27.90
2022-08-05T14:57:05.118Z,27.60
2022-08-05T14:59:38.025Z,27.30
2022-08-05T15:02:14.639Z,27.20
2022-08-05T15:04:45.022Z,27.20
2022-08-05T15:08:11.518Z,27.20
2022-08-05T15:10:09.506Z,27.00
2022-08-05T15:12:59.873Z,27.00
2022-08-05T15:15:54.910Z,26.80
2022-08-05T15:18:18.643Z,26.60
2022-08-05T15:20:47.760Z,26.40
2022-08-05T15:23:15.814Z,26.20
2022-08-05T15:25:53.259Z,26.20
2022-08-05T15:28:27.025Z,26.40
2022-08-05T15:30:56.175Z,26.60
2022-08-05T15:35:48.037Z,26.90
2022-08-05T15:38:35.329Z,27.10
2022-08-05T15:41:22.445Z,27.20
2022-08-05T15:43:56.766Z,27.30
2022-08-05T16:08:32.953Z,27.70
2022-08-05T16:11:03.628Z,27.70
2022-08-05T16:13:34.418Z,27.40
2022-08-05T16:16:04.218Z,27.10
2022-08-05T16:18:35.877Z,26.90
2022-08-05T16:21:59.442Z,26.80
2022-08-05T16:24:39.546Z,26.60
2022-08-05T16:27:04.183Z,26.50
2022-08-05T16:29:38.168Z,26.30
2022-08-05T16:32:09.672Z,26.10
2022-08-05T16:34:39.227Z,26.00
2022-08-05T16:38:03.627Z,25.90
2022-08-05T16:40:06.577Z,25.90
2022-08-05T16:42:36.384Z,25.80
2022-08-05T16:46:05.057Z,25.60
2022-08-05T16:47:58.502Z,25.40
2022-08-05T16:50:30.363Z,25.10
2022-08-05T16:53:12.127Z,24.90
2022-08-05T16:55:49.015Z,24.60
2022-08-05T16:58:19.631Z,24.50
2022-08-05T17:00:49.585Z,24.40
2022-08-05T17:03:20.164Z,24.30
2022-08-05T17:05:54.014Z,24.30
2022-08-05T17:08:35.864Z,24.30
2022-08-05T17:11:17.565Z,24.10
2022-08-05T17:13:46.307Z,24.20
2022-08-05T17:16:33.442Z,24.30
2022-08-05T17:19:02.623Z,24.50
2022-08-05T17:21:35.396Z,24.60
2022-08-05T17:24:30.262Z,24.70
2022-08-05T17:26:59.236Z,24.90
2022-08-05T17:29:39.740Z,24.90
2022-08-05T17:32:17.389Z,24.80
2022-08-05T17:34:48.051Z,24.80
2022-08-05T17:37:39.417Z,24.80
2022-08-05T17:40:12.158Z,24.80
2022-08-05T17:42:50.597Z,24.90
2022-08-05T17:45:22.782Z,24.90
2022-08-05T17:47:55.506Z,24.90
2022-08-05T17:50:29.473Z,24.90
2022-08-05T17:53:05.403Z,24.80
2022-08-05T17:55:38.184Z,24.80
2022-08-05T17:58:11.120Z,24.80
2022-08-05T18:00:50.707Z,24.60
2022-08-05T18:06:12.286Z,24.30
2022-08-05T18:08:46.190Z,24.20
2022-08-05T18:11:24.779Z,24.00
2022-08-05T18:14:13.390Z,24.00
2022-08-05T18:16:51.038Z,23.80
2022-08-05T18:19:22.843Z,23.70
2022-08-05T18:22:08.475Z,23.60
2022-08-05T18:24:40.447Z,23.50
2022-08-05T18:27:12.968Z,23.40
2022-08-05T18:29:53.682Z,23.40
2022-08-05T18:32:27.848Z,23.40
2022-08-05T18:34:57.035Z,23.40
2022-08-05T18:37:33.963Z,23.30
2022-08-05T18:40:34.569Z,23.30
2022-08-05T18:43:03.241Z,23.30
2022-08-05T18:45:41.326Z,23.30
2022-08-05T18:48:11.085Z,23.30
2022-08-05T18:51:01.666Z,23.30
2022-08-05T18:53:50.186Z,23.20
2022-08-05T18:56:21.657Z,23.20
2022-08-05T18:58:54.948Z,23.10
2022-08-05T19:01:47.854Z,23.10
2022-08-05T19:04:24.014Z,23.00
2022-08-05T19:06:53.514Z,23.00
2022-08-05T19:09:22.179Z,22.90
2022-08-05T19:11:59.225Z,22.80
2022-08-05T19:14:38.029Z,22.80
2022-08-05T19:17:19.197Z,22.80
2022-08-05T19:19:48.755Z,22.70
2022-08-05T19:22:17.853Z,22.70
2022-08-05T19:24:54.444Z,22.60
2022-08-05T19:27:30.479Z,22.50
2022-08-05T19:29:58.778Z,22.40
2022-08-05T19:32:27.895Z,22.40
2022-08-05T19:34:57.871Z,22.40
2022-08-05T19:37:47.203Z,22.30
2022-08-05T19:40:17.634Z,22.30
2022-08-05T19:43:04.761Z,22.20
2022-08-05T19:45:36.734Z,22.20
2022-08-05T19:48:06.190Z,22.10
2022-08-05T19:50:35.095Z,22.10
2022-08-05T19:53:09.488Z,22.10
2022-08-05T19:56:15.203Z,22.00
2022-08-05T19:58:29.855Z,22.00
2022-08-05T20:00:59.159Z,21.90
2022-08-05T20:03:40.537Z,21.90
2022-08-05T20:06:15.525Z,21.80
2022-08-05T20:08:47.612Z,21.70
2022-08-05T20:11:18.044Z,21.70
2022-08-05T20:13:59.021Z,21.70
2022-08-05T20:16:35.945Z,21.60
2022-08-05T20:19:04.998Z,21.60
2022-08-05T20:21:33.737Z,21.60
2022-08-05T20:24:06.388Z,21.50
2022-08-05T20:26:34.119Z,21.40
2022-08-05T20:29:02.390Z,21.40
2022-08-05T20:31:42.832Z,21.40
2022-08-05T20:34:19.979Z,21.40
2022-08-05T20:36:48.006Z,21.40
2022-08-05T20:39:17.168Z,21.30
2022-08-05T20:41:47.825Z,21.30
2022-08-05T20:44:29.365Z,21.30
2022-08-05T20:47:01.261Z,21.20
2022-08-05T20:49:30.010Z,21.20
2022-08-05T20:52:07.106Z,21.00
2022-08-05T20:54:43.514Z,21.10
2022-08-05T20:57:42.541Z,21.00
2022-08-05T21:00:20.864Z,21.00
2022-08-05T21:03:06.343Z,20.90
2022-08-05T21:05:47.421Z,20.90
2022-08-05T21:08:26.868Z,20.80
2022-08-05T21:11:01.646Z,20.80
2022-08-05T21:13:56.274Z,20.70
2022-08-05T21:16:30.110Z,20.70
2022-08-05T21:19:03.599Z,20.60
2022-08-05T21:21:39.304Z,20.60
2022-08-05T21:24:15.609Z,20.50
2022-08-05T21:26:53.210Z,20.40
2022-08-05T21:29:26.178Z,20.30
2022-08-05T21:31:55.589Z,20.30
2022-08-05T21:34:24.101Z,20.30
2022-08-05T21:36:52.614Z,20.20
2022-08-05T21:39:26.508Z,20.10
2022-08-05T21:42:01.483Z,20.10
2022-08-05T21:44:31.959Z,20.00
2022-08-05T21:47:03.201Z,20.00
2022-08-05T21:50:00.414Z,20.00
2022-08-05T21:52:27.799Z,19.90
2022-08-05T21:55:06.434Z,19.90
2022-08-05T21:57:42.575Z,19.90
2022-08-05T22:00:12.117Z,19.90
2022-08-05T22:02:43.716Z,19.90
2022-08-05T22:05:13.050Z,19.90
2022-08-05T22:07:59.002Z,19.80
2022-08-05T22:10:28.316Z,19.80
2022-08-05T22:12:59.197Z,19.80
2022-08-05T22:16:00.382Z,19.80
2022-08-05T22:18:26.828Z,19.70
2022-08-05T22:20:55.810Z,19.70
2022-08-05T22:24:01.900Z,19.60
2022-08-05T22:28:52.435Z,19.50
2022-08-05T22:31:21.316Z,19.50
2022-08-05T22:33:57.081Z,19.50
2022-08-05T22:36:29.348Z,19.40
2022-08-05T22:38:57.141Z,19.40
2022-08-05T22:42:09.646Z,19.40
2022-08-05T22:44:21.143Z,19.40
2022-08-05T22:46:50.532Z,19.30
2022-08-05T22:49:46.248Z,19.30
2022-08-05T22:52:15.401Z,19.20
2022-08-05T22:54:55.292Z,19.20
2022-08-05T22:57:23.352Z,19.10
2022-08-05T22:59:54.048Z,19.10
2022-08-05T23:02:29.450Z,19.00
2022-08-05T23:05:01.637Z,19.00
2022-08-05T23:07:45.331Z,19.00
2022-08-05T23:10:20.631Z,19.00
2022-08-05T23:12:51.196Z,19.00
2022-08-05T23:15:20.268Z,18.90
2022-08-05T23:18:01.263Z,18.90
2022-08-05T23:20:37.399Z,18.80
2022-08-05T23:23:08.600Z,18.80
2022-08-05T23:25:52.254Z,18.80
2022-08-05T23:28:29.269Z,18.70
2022-08-05T23:31:16.523Z,18.70
2022-08-05T23:34:04.819Z,18.70
2022-08-05T23:36:38.517Z,18.60
2022-08-05T23:39:09.396Z,18.60
2022-08-05T23:41:40.925Z,18.60
2022-08-05T23:44:09.635Z,18.60
2022-08-05T23:46:37.593Z,18.50
2022-08-05T23:49:15.938Z,18.50
2022-08-05T23:52:03.450Z,18.40
2022-08-05T23:54:38.152Z,18.40
2022-08-05T23:57:08.004Z,18.30
